• Join FlightAware (Why Join?)
  • Login
  • US Flag 
06:23PM EST


 

Airport Tracker/Info


-or-


 

Live Flight TrackerFlight Track Log ✈ N373RS ✈ 24-May-2013 ✈ KTEB - 07FA

Flight Track Log - Related Links

Times and Time Zones

All times are in EDT time to prevent confusion due to time zone crossing. See the N373RS flight status page for this flight to view local times or setup timezone preferences in your user account.

Time Position Orientation Groundspeed Altitude Reporting Facility
EDT Latitude Longitude Course Direction KTS MPH feet Rate Location/Type
09:54AM 40.8333 -74.1000 180° South 172 198 1,400  Level New York TRACON
09:55AM 40.8000 -74.1833 242° Southwest 220 253 3,000 1,260 Climbing New York TRACON
09:56AM 40.7667 -74.2667 242° Southwest 265 305 4,000 1,440 Climbing New York TRACON
09:57AM 40.7167 -74.3333 225° Southwest 273 314 5,900 1,020 Climbing New York TRACON
09:58AM 40.6500 -74.3167 169° South 284 327 6,000  Climbing New York TRACON
09:59AM 40.5833 -74.2833 159° South 267 307 6,000  Level New York TRACON
10:00AM 40.2512 -74.1667 180° South  Level FlightAware Approximate
10:00AM 40.5000 -74.2500 163° South 273 314 6,000  Level New York TRACON
10:02AM 40.3847 -74.1986 161° South 300 345 6,000 480 Level New York Center
10:03AM 40.3364 -74.1419 138° Southeast 258 297 7,400 2,400 Climbing New York Center
10:04AM 40.3019 -74.0339 113° Southeast 273 314 10,800 3,480 Climbing New York Center
10:05AM 40.2347 -74.0525 192° South 213 245 14,400 2,760 Climbing New York Center
10:06AM 40.1686 -74.1064 212° Southwest 234 269 16,400 2,040 Climbing New York Center
10:07AM 40.0936 -74.1761 215° Southwest 310 357 18,600 2,220 Climbing New York Center
10:09AM 39.9050 -74.3472 215° Southwest 342 394 24,100 2,040 Climbing Washington Center
10:10AM 39.8267 -74.4269 218° Southwest 361 415 25,600 1,560 Climbing Washington Center
10:11AM 39.7567 -74.5092 222° Southwest 367 422 27,200 1,560 Climbing Washington Center
10:12AM 39.6825 -74.6072 226° Southwest 378 435 28,800 1,440 Climbing Washington Center
10:13AM 39.6081 -74.7053 225° Southwest 383 441 30,200 1,020 Climbing Washington Center
10:14AM 39.5358 -74.8058 227° Southwest 383 441 30,900 780 Climbing Washington Center
10:15AM 39.4572 -74.9061 225° Southwest 383 441 31,800 1,320 Climbing Washington Center
10:16AM 39.3850 -75.0061 227° Southwest 383 441 33,600 1,380 Climbing Washington Center
10:17AM 39.3061 -75.0981 222° Southwest 383 441 34,600 1,200 Climbing Washington Center
10:18AM 39.2083 -75.1522 203° Southwest 375 432 36,000 1,500 Climbing Washington Center
10:19AM 39.1147 -75.1931 199° South 370 426 37,700 1,200 Climbing Washington Center
10:20AM 39.0192 -75.2364 199° South 365 420 38,500 720 Climbing Washington Center
10:21AM 38.9192 -75.2769 198° South 371 427 39,200 720 Climbing Washington Center
10:22AM 38.8169 -75.3147 196° South 376 433 40,000 360 Climbing Washington Center
10:23AM 38.7150 -75.3603 199° South 381 438 40,000  Level Washington Center
10:24AM 38.6108 -75.4003 197° South 386 444 40,000  Level Washington Center
10:25AM 38.5067 -75.4458 199° South 391 450 40,000  Level Washington Center
10:26AM 38.4003 -75.4911 198° South 396 456 40,000  Level Washington Center
10:27AM 38.2942 -75.5283 195° South 401 461 40,000  Level Washington Center
10:28AM 38.1919 -75.5758 200° South 401 461 40,000  Level Washington Center
10:29AM 38.0875 -75.6233 200° South 401 461 40,000  Level Washington Center
10:30AM 37.9792 -75.6761 201° Southwest 396 456 40,000  Level Washington Center
10:31AM 37.8747 -75.7258 201° Southwest 391 450 40,000  Level Washington Center
10:32AM 37.7725 -75.7706 199° South 391 450 40,000  Level Washington Center
10:33AM 37.6683 -75.8175 200° South 391 450 40,000  Level Washington Center
10:34AM 37.5658 -75.8642 200° South 391 450 40,000  Level Washington Center
10:35AM 37.4617 -75.9111 200° South 396 456 40,000  Level Washington Center
10:36AM 37.3550 -75.9575 199° South 396 456 40,000  Level Washington Center
10:37AM 37.2528 -76.0042 200° South 401 461 40,000  Level Washington Center
10:38AM 37.1461 -76.0506 199° South 401 461 40,000  Level Washington Center
10:39AM 37.0436 -76.0967 200° South 401 461 40,000  Level Washington Center
10:40AM 36.9414 -76.1350 197° South 414 476 40,000  Level Washington Center
10:41AM 36.8367 -76.1811 199° South 419 482 40,000  Level Washington Center
10:42AM 36.7303 -76.2269 199° South 414 476 40,000  Level Washington Center
10:43AM 36.6150 -76.2828 201° Southwest 414 476 40,000  Level Washington Center
10:44AM 36.5083 -76.3283 199° South 409 471 40,000  Level Washington Center
10:45AM 36.3997 -76.3739 199° South 409 471 40,000  Level Washington Center
10:46AM 36.2931 -76.4192 199° South 409 471 40,000  Level Washington Center
10:47AM 36.1842 -76.4644 199° South 409 471 40,000  Level Washington Center
10:48AM 36.0753 -76.5119 199° South 409 471 40,000  Level Washington Center
10:49AM 35.9747 -76.5544 199° South 414 476 40,000  Level Washington Center
10:50AM 35.8658 -76.5994 199° South 419 482 40,000  Level Washington Center
10:51AM 35.7550 -76.6464 199° South 424 488 40,000  Level Washington Center
10:52AM 35.6461 -76.6936 199° South 424 488 40,000  Level Washington Center
10:53AM 35.5350 -76.7406 199° South 424 488 40,000  Level Washington Center
10:54AM 35.4136 -76.7950 200° South 424 488 40,000  Level Washington Center
10:55AM 35.3025 -76.8392 198° South 424 488 40,000  Level Washington Center
10:56AM 35.1892 -76.8856 198° South 430 495 40,000  Level Washington Center
10:57AM 35.0908 -76.9322 201° Southwest 425 489 40,000  Level Washington Center
10:58AM 34.9775 -76.9786 199° South 430 495 40,000  Level Washington Center
10:59AM 34.8622 -77.0247 198° South 430 495 40,000  Level Washington Center
11:00AM 34.7511 -77.0708 199° South 430 495 40,000  Level Washington Center
11:01AM 34.6400 -77.1194 200° South 425 489 40,000  Level Washington Center
11:02AM 34.5244 -77.1650 198° South 425 489 40,000  Level Washington Center
11:03AM 34.4133 -77.2108 199° South 425 489 40,000  Level Washington Center
11:04AM 34.2981 -77.2589 199° South 425 489 40,000  Level Washington Center
11:05AM 34.1825 -77.3017 197° South 430 495 40,000  Level Washington Center
11:06AM 33.9956 -77.3797 199° South 439 505 40,000  Level Jacksonville Center
11:07AM 33.8806 -77.4244 198° South 439 505 40,000  Level Jacksonville Center
11:08AM 33.7636 -77.4717 199° South 439 505 40,000  Level Jacksonville Center
11:09AM 33.6489 -77.5189 199° South 439 505 40,000  Level Jacksonville Center
11:10AM 33.5300 -77.5658 198° South 439 505 40,000  Level Jacksonville Center
11:11AM 33.4150 -77.6150 200° South 439 505 40,000  Level Jacksonville Center
11:12AM 33.2961 -77.6619 198° South 439 505 40,000  Level Jacksonville Center
11:13AM 33.1811 -77.7058 198° South 439 505 40,000  Level Jacksonville Center
11:14AM 33.0642 -77.7547 199° South 439 505 40,000  Level Jacksonville Center
11:15AM 32.9450 -77.8011 198° South 439 505 40,000  Level Jacksonville Center
11:16AM 32.8300 -77.8472 199° South 439 505 40,000  Level Jacksonville Center
11:17AM 32.7108 -77.8958 199° South 439 505 40,000  Level Jacksonville Center
11:18AM 32.5936 -77.9392 197° South 439 505 40,000 -60 Level Jacksonville Center
11:19AM 32.4764 -77.9875 199° South 445 512 39,900  Descending Jacksonville Center
11:20AM 32.3592 -78.0331 198° South 445 512 40,000  Climbing Jacksonville Center
11:21AM 32.2419 -78.0761 197° South 445 512 40,000  Level Jacksonville Center
11:22AM 32.1228 -78.1242 199° South 445 512 40,000  Level Jacksonville Center
11:23AM 32.0075 -78.1694 198° South 445 512 40,000  Level Jacksonville Center
11:24AM 31.8900 -78.2097 196° South 445 512 40,000  Level Jacksonville Center
11:25AM 31.7750 -78.2594 200° South 440 506 40,000  Level Jacksonville Center
11:26AM 31.6681 -78.3064 200° South 445 512 40,000  Level Jacksonville Center
11:27AM 31.5547 -78.3483 198° South 445 512 40,000  Level Jacksonville Center
11:28AM 31.4375 -78.3931 198° South 440 506 40,000  Level Jacksonville Center
11:29AM 31.3181 -78.4403 199° South 440 506 40,000  Level Jacksonville Center
11:30AM 31.2044 -78.4772 196° South 440 506 40,000  Level Jacksonville Center
11:31AM 31.0853 -78.5264 199° South 440 506 40,000  Level Jacksonville Center
11:32AM 30.9656 -78.5731 198° South 440 506 40,000  Level Jacksonville Center
11:33AM 30.8461 -78.6197 199° South 445 512 40,000  Level Jacksonville Center
11:34AM 30.7264 -78.6614 197° South 452 520 40,000  Level Jacksonville Center
11:36AM 30.5331 -78.7144 193° South 449 517 40,000  Level Miami Center
11:37AM 30.4036 -78.7361 188° South 454 522 40,000  Level Miami Center
11:38AM 30.2739 -78.7603 189° South 466 536 40,000  Level Miami Center
11:39AM 30.1464 -78.7819 188° South 472 543 40,000  Level Miami Center
11:40AM 30.0106 -78.8131 191° South 467 537 40,000  Level Miami Center
11:41AM 29.8811 -78.8300 186° South 467 537 40,000  Level Miami Center
11:42AM 29.7556 -78.8564 190° South 467 537 40,000  Level Miami Center
11:43AM 29.6239 -78.8683 185° South 472 543 40,000  Level Miami Center
11:44AM 29.4944 -78.8850 186° South 463 533 40,000  Level Miami Center
11:45AM 29.3669 -78.9039 187° South 469 540 40,000  Level Miami Center
11:46AM 29.2375 -78.9181 185° South 470 541 40,000  Level Miami Center
11:47AM 29.1119 -78.9397 189° South 475 547 40,000  Level Miami Center
11:48AM 28.9761 -78.9536 185° South 475 547 40,000  Level Miami Center
11:49AM 28.8464 -78.9703 186° South 475 547 40,000  Level Miami Center
11:50AM 28.7106 -78.9889 187° South 480 552 40,000 -300 Level Miami Center
11:51AM 28.5831 -79.0053 186° South 485 558 39,400 -1,140 Descending Miami Center
11:52AM 28.4514 -79.0242 187° South 479 551 37,800 -1,680 Descending Miami Center
11:53AM 28.3217 -79.0428 187° South 479 551 36,100 -1,560 Descending Miami Center
11:54AM 28.1894 -79.0828 195° South 484 557 34,700 -1,380 Descending Miami Center
11:55AM 28.0614 -79.1225 195° South 489 563 33,400 -1,320 Descending Miami Center
11:56AM 27.9314 -79.1622 195° South 489 563 32,100 -1,320 Descending Miami Center
11:57AM 27.8097 -79.2019 196° South 472 543 30,800 -1,260 Descending Miami Center
11:58AM 27.6922 -79.2347 194° South 472 543 29,600 -1,260 Descending Miami Center
11:59AM 27.5622 -79.2767 196° South 485 558 28,300 -1,440 Descending Miami Center
12:00PM 27.4214 -79.3181 195° South 485 558 26,800 -1,500 Descending Miami Center
12:01PM 27.2933 -79.3575 195° South 479 551 25,400 -1,440 Descending Miami Center
12:02PM 27.1653 -79.3944 194° South 479 551 24,000 -1,200 Descending Miami Center
12:03PM 27.0519 -79.4294 195° South 471 542 23,000 -1,680 Descending Miami Center
12:05PM 26.8022 -79.5053 195° South 471 542 19,000 -2,040 Descending Miami Center
12:06PM 26.6656 -79.5486 196° South 477 549 17,000 -1,980 Descending Miami Center
12:07PM 26.5683 -79.6022 206° Southwest 444 511 15,100 -1,980 Descending Miami Center
12:08PM 26.4850 -79.7000 226° Southwest 400 460 13,100 -1,560 Descending Miami Center
12:08PM 26.4614 -79.7344 233° Southwest 327 376 13,000 -120 Descending Miami Center
12:09PM 26.4419 -79.7756 242° Southwest 354 407 13,000  Level Miami Center
12:09PM 26.4158 -79.8189 236° Southwest 305 351 13,000  Level Miami Center
12:10PM 26.3878 -79.8669 237° Southwest 331 381 13,000  Level Miami Center
12:10PM 26.3642 -79.8967 228° Southwest 378 435 13,000 -120 Level Miami Center
12:11PM 26.3214 -79.9419 223° Southwest 357 411 12,900 -720 Descending Miami Center
12:12PM 26.2236 -80.0228 217° Southwest 384 442 11,800 -1,080 Descending Miami Center
12:12PM 26.1858 -80.0378 200° South 407 468 11,500 -1,020 Descending Miami Center
12:13PM 26.1142 -80.0567 193° South 391 450 10,800 -1,080 Descending Miami Center
12:14PM 26.0575 -80.0739 195° South 402 463 10,300 -840 Descending Miami Center
12:14PM 26.0072 -80.0864 193° South 402 463 10,000 -480 Descending Miami Center
12:15PM 25.9442 -80.0961 188° South 329 379 9,800 -600 Descending Miami Center
12:15PM 25.9128 -80.0975 182° South 371 427 9,400 -1,020 Descending Miami Center
12:16PM 25.8625 -80.1078 190° South 275 316 8,800 -1,200 Descending Miami Center
12:16PM 25.8353 -80.1069 178° South 326 375 8,200 -1,980 Descending Miami Center
12:17PM 25.7808 -80.1169 189° South 295 339 6,800 -1,440 Descending Miami Center
12:18PM 25.7097 -80.1267 187° South 270 311 6,000 -780 Descending Miami Center
12:19PM 25.6319 -80.1408 189° South 277 319 5,300 -720 Descending Miami Center
12:21PM 25.4393 -80.2137 204° Southwest  Level FlightAware Approximate
12:28PM 25.3167 -80.2667 200° South  Level FlightAware Approximate
12:29PM 25.3254 -80.2748 200° South  Level Estimated
12:30PM 25.3254 -80.2748 200° South  Level Estimated
12:31PM 25.3254 -80.2748 200° South  Level Estimated
12:32PM 25.3254 -80.2748 200° South  Level Estimated